Bellaire, Arkansas
Current Conditions -  °F | °C
As of 2:53 PM on Monday 24 Nov 2014 (Local Time) from KLLQ Reporting Station
Clear Clear  
Wind Chill: 59°   Ceiling: Unl
Heat Index: 59°   Visibility: 10mi
Dew Point: 29°   Wind: 9mph
Humidity: 32%   Direction: 280°W
Pressure: 29.96"   Gusts: 17mph
Location:  33.4898°N, 91.4556°W
Report Text: KLLQ 242053Z AUTO 28008G15KT 10SM CLR 15/M02 A2996 RMK AO2 SLP142 T01501017 53002
Loading
Personal Weather Stations






























Interactive Weather Map New forecast layout! Learn more

10-Day Weather Forecast

Advertisements
Track Severe Weather on mobile